createdAt,value
2023-04-02T00:00:11.848Z,5.75
2023-04-02T00:01:14.618Z,5.75
2023-04-02T00:02:17.476Z,5.75
2023-04-02T00:03:52.848Z,5.75
2023-04-02T00:04:56.048Z,5.75
2023-04-02T00:05:58.922Z,5.75
2023-04-02T00:07:33.503Z,5.69
2023-04-02T00:08:36.409Z,5.69
2023-04-02T00:09:39.431Z,5.69
2023-04-02T00:11:14.079Z,5.69
2023-04-02T00:12:17.149Z,5.69
2023-04-02T00:13:20.049Z,5.69
2023-04-02T00:14:54.647Z,5.63
2023-04-02T00:15:57.707Z,5.63
2023-04-02T00:17:00.942Z,5.63
2023-04-02T00:18:35.578Z,5.63
2023-04-02T00:19:38.350Z,5.63
2023-04-02T00:20:41.254Z,5.63
2023-04-02T00:22:15.733Z,5.63
2023-04-02T00:23:18.589Z,5.63
2023-04-02T00:24:21.444Z,5.63
2023-04-02T00:25:56.377Z,5.56
2023-04-02T00:26:59.439Z,5.56
2023-04-02T00:28:02.321Z,5.56
2023-04-02T00:29:37.129Z,5.50
2023-04-02T00:30:40.072Z,5.50
2023-04-02T00:31:43.001Z,5.50
2023-04-02T00:33:18.164Z,5.50
2023-04-02T00:34:20.975Z,5.50
2023-04-02T00:35:23.754Z,5.50
2023-04-02T00:36:58.794Z,5.50
2023-04-02T00:38:01.567Z,5.56
2023-04-02T00:39:04.219Z,5.50
2023-04-02T00:40:38.885Z,5.56
2023-04-02T00:41:41.822Z,5.56
2023-04-02T00:42:44.867Z,5.56
2023-04-02T00:44:19.530Z,5.56
2023-04-02T00:45:22.408Z,5.50
2023-04-02T00:46:26.232Z,5.50
2023-04-02T00:48:00.966Z,5.50
2023-04-02T00:49:03.994Z,5.50
2023-04-02T00:50:06.774Z,5.50
2023-04-02T00:51:41.466Z,5.50
2023-04-02T00:52:44.216Z,5.44
2023-04-02T00:53:46.965Z,5.44
2023-04-02T00:55:21.494Z,5.44
2023-04-02T00:56:24.725Z,5.44
2023-04-02T00:57:27.706Z,5.38
2023-04-02T00:59:02.388Z,5.44
2023-04-02T01:00:11.349Z,5.38
2023-04-02T01:01:14.318Z,5.44
2023-04-02T01:02:18.090Z,5.44
2023-04-02T01:03:55.207Z,5.44
2023-04-02T01:04:58.699Z,5.44
2023-04-02T01:06:02.177Z,5.44
2023-04-02T01:07:36.729Z,5.44
2023-04-02T01:08:39.512Z,5.44
2023-04-02T01:09:42.291Z,5.44
2023-04-02T01:11:16.948Z,5.38
2023-04-02T01:12:19.719Z,5.38
2023-04-02T01:13:22.486Z,5.38
2023-04-02T01:14:56.866Z,5.31
2023-04-02T01:15:59.712Z,5.31
2023-04-02T01:17:02.864Z,5.31
2023-04-02T01:18:37.592Z,5.31
2023-04-02T01:19:40.552Z,5.31
2023-04-02T01:20:43.457Z,5.25
2023-04-02T01:22:18.348Z,5.25
2023-04-02T01:23:21.368Z,5.25
2023-04-02T01:24:24.132Z,5.25
2023-04-02T01:25:58.629Z,5.25
2023-04-02T01:27:01.414Z,5.25
2023-04-02T01:28:04.212Z,5.19
2023-04-02T01:29:38.623Z,5.25
2023-04-02T01:30:41.519Z,5.25
2023-04-02T01:31:44.541Z,5.25
2023-04-02T01:33:19.748Z,5.25
2023-04-02T01:34:24.409Z,5.25
2023-04-02T01:35:28.301Z,5.25
2023-04-02T01:37:03.828Z,5.25
2023-04-02T01:38:06.706Z,5.25
2023-04-02T01:39:09.597Z,5.25
2023-04-02T01:40:44.272Z,5.25
2023-04-02T01:41:47.027Z,5.19
2023-04-02T01:42:49.838Z,5.19
2023-04-02T01:44:24.413Z,5.13
2023-04-02T01:45:27.286Z,5.13
2023-04-02T01:46:30.299Z,5.06
2023-04-02T01:48:05.253Z,5.06
2023-04-02T01:49:08.166Z,5.06
2023-04-02T01:50:11.038Z,5.00
2023-04-02T01:51:45.746Z,5.00
2023-04-02T01:52:48.543Z,5.00
2023-04-02T01:53:51.411Z,5.00
2023-04-02T01:55:26.036Z,5.00
2023-04-02T01:56:29.375Z,4.94
2023-04-02T01:57:32.648Z,4.94
2023-04-02T01:59:06.995Z,5.00
2023-04-02T02:00:12.130Z,4.94
2023-04-02T02:01:15.202Z,4.94
2023-04-02T02:02:18.313Z,4.94
2023-04-02T02:03:53.832Z,4.94
2023-04-02T02:04:56.608Z,4.94
2023-04-02T02:05:59.614Z,4.94
2023-04-02T02:07:34.249Z,5.00
2023-04-02T02:08:37.110Z,4.94
2023-04-02T02:09:39.982Z,4.94
2023-04-02T02:11:14.642Z,4.94
2023-04-02T02:12:17.536Z,4.94
2023-04-02T02:13:20.321Z,5.00
2023-04-02T02:14:54.678Z,5.00
2023-04-02T02:15:57.511Z,5.00
2023-04-02T02:17:00.687Z,5.00
2023-04-02T02:18:35.175Z,4.94
2023-04-02T02:19:37.975Z,4.94
2023-04-02T02:20:40.766Z,4.94
2023-04-02T02:22:15.383Z,5.00
2023-04-02T02:23:18.311Z,4.94
2023-04-02T02:24:21.192Z,5.00
2023-04-02T02:25:55.864Z,5.00
2023-04-02T02:26:58.778Z,4.94
2023-04-02T02:28:01.692Z,4.94
2023-04-02T02:29:36.377Z,4.94
2023-04-02T02:30:39.172Z,4.94
2023-04-02T02:31:42.110Z,4.88
2023-04-02T02:33:17.493Z,4.88
2023-04-02T02:34:20.211Z,4.88
2023-04-02T02:35:23.059Z,4.88
2023-04-02T02:36:58.515Z,4.88
2023-04-02T02:38:01.235Z,4.81
2023-04-02T02:39:04.012Z,4.81
2023-04-02T02:40:38.939Z,4.81
2023-04-02T02:41:41.781Z,4.81
2023-04-02T02:42:44.760Z,4.81
2023-04-02T02:44:19.289Z,4.75
2023-04-02T02:45:22.139Z,4.69
2023-04-02T02:46:25.791Z,4.69
2023-04-02T02:48:00.661Z,4.69
2023-04-02T02:49:03.609Z,4.75
2023-04-02T02:50:06.457Z,4.75
2023-04-02T02:51:40.991Z,4.69
2023-04-02T02:52:43.830Z,4.69
2023-04-02T02:53:46.767Z,4.69
2023-04-02T02:55:21.265Z,4.69
2023-04-02T02:56:24.701Z,4.69
2023-04-02T02:57:27.777Z,4.69
2023-04-02T02:59:02.790Z,4.69
2023-04-02T03:00:12.236Z,4.63
2023-04-02T03:01:15.089Z,4.63
2023-04-02T03:02:18.528Z,4.56
2023-04-02T03:03:54.841Z,4.56
2023-04-02T03:04:58.381Z,4.50
2023-04-02T03:06:01.230Z,4.50
2023-04-02T03:07:35.884Z,4.50
2023-04-02T03:08:38.613Z,4.44
2023-04-02T03:09:41.409Z,4.44
2023-04-02T03:11:16.019Z,4.44
2023-04-02T03:12:18.860Z,4.38
2023-04-02T03:13:21.803Z,4.38
2023-04-02T03:14:56.334Z,4.31
2023-04-02T03:15:59.315Z,4.31
2023-04-02T03:17:02.557Z,4.31
2023-04-02T03:18:37.189Z,4.25
2023-04-02T03:19:39.878Z,4.25
2023-04-02T03:20:42.683Z,4.25
2023-04-02T03:22:17.152Z,4.25
2023-04-02T03:23:20.533Z,4.19
2023-04-02T03:24:23.340Z,4.19
2023-04-02T03:25:57.842Z,4.13
2023-04-02T03:27:00.527Z,4.13
2023-04-02T03:28:03.348Z,4.13
2023-04-02T03:29:37.814Z,4.13
2023-04-02T03:30:40.773Z,4.13
2023-04-02T03:31:44.028Z,4.13
2023-04-02T03:33:18.941Z,4.06
2023-04-02T03:34:21.987Z,4.13
2023-04-02T03:35:24.941Z,4.13
2023-04-02T03:37:00.290Z,4.13
2023-04-02T03:38:03.087Z,4.13
2023-04-02T03:39:05.845Z,4.06
2023-04-02T03:40:40.384Z,4.06
2023-04-02T03:41:43.198Z,4.06
2023-04-02T03:42:46.001Z,4.13
2023-04-02T03:44:20.500Z,4.06
2023-04-02T03:45:23.531Z,4.06
2023-04-02T03:46:26.729Z,4.06
2023-04-02T03:48:01.959Z,4.00
2023-04-02T03:49:04.872Z,4.00
2023-04-02T03:50:07.833Z,4.00
2023-04-02T03:51:42.511Z,4.00
2023-04-02T03:52:45.437Z,3.94
2023-04-02T03:53:48.330Z,3.94
2023-04-02T03:55:22.940Z,3.94
2023-04-02T03:56:26.320Z,3.88
2023-04-02T03:57:29.331Z,3.88
2023-04-02T03:59:03.819Z,3.81
2023-04-02T04:00:11.735Z,3.81
2023-04-02T04:01:14.470Z,3.81
2023-04-02T04:02:17.293Z,3.81
2023-04-02T04:03:52.494Z,3.81
2023-04-02T04:04:55.992Z,3.81
2023-04-02T04:05:41.578Z,3.81
2023-04-02T04:06:44.645Z,3.81
2023-04-02T04:07:47.707Z,3.75
2023-04-02T04:09:22.404Z,3.75
2023-04-02T04:10:25.525Z,3.75
2023-04-02T04:11:28.734Z,3.69
2023-04-02T04:13:03.880Z,3.63
2023-04-02T04:14:06.848Z,3.63
2023-04-02T04:15:09.742Z,3.63
2023-04-02T04:16:44.992Z,3.63
2023-04-02T04:17:47.959Z,3.63
2023-04-02T04:18:51.344Z,3.63
2023-04-02T04:20:26.214Z,3.56
2023-04-02T04:21:29.035Z,3.63
2023-04-02T04:22:32.159Z,3.63
2023-04-02T04:24:06.699Z,3.63
2023-04-02T04:25:09.591Z,3.63
2023-04-02T04:26:12.796Z,3.63
2023-04-02T04:27:47.381Z,3.69
2023-04-02T04:28:50.237Z,3.63
2023-04-02T04:29:53.089Z,3.63
2023-04-02T04:31:27.937Z,3.63
2023-04-02T04:32:31.520Z,3.63
2023-04-02T04:33:34.954Z,3.63
2023-04-02T04:35:09.831Z,3.63
2023-04-02T04:36:13.962Z,3.63
2023-04-02T04:37:17.250Z,3.56
2023-04-02T04:38:54.350Z,3.56
2023-04-02T04:39:57.203Z,3.50
2023-04-02T04:41:00.268Z,3.50
2023-04-02T04:42:34.935Z,3.50
2023-04-02T04:43:37.952Z,3.50
2023-04-02T04:44:41.060Z,3.50
2023-04-02T04:46:15.721Z,3.44
2023-04-02T04:47:18.983Z,3.44
2023-04-02T04:48:22.155Z,3.44
2023-04-02T04:49:58.815Z,3.44
2023-04-02T04:51:01.579Z,3.44
2023-04-02T04:52:04.422Z,3.38
2023-04-02T04:53:39.208Z,3.44
2023-04-02T04:54:42.005Z,3.38
2023-04-02T04:55:45.116Z,3.38
2023-04-02T04:57:37.464Z,3.38
2023-04-02T04:58:40.288Z,3.31
2023-04-02T04:59:43.187Z,3.31
2023-04-02T05:00:11.939Z,3.25
2023-04-02T05:01:14.860Z,3.25
2023-04-02T05:02:18.067Z,3.19
2023-04-02T05:03:53.039Z,3.13
2023-04-02T05:04:56.096Z,3.13
2023-04-02T05:05:59.031Z,3.13
2023-04-02T05:07:33.909Z,3.06
2023-04-02T05:08:38.354Z,3.06
2023-04-02T05:09:41.185Z,3.06
2023-04-02T05:11:15.836Z,3.06
2023-04-02T05:12:18.553Z,3.06
2023-04-02T05:13:21.354Z,3.06
2023-04-02T05:14:55.835Z,3.13
2023-04-02T05:16:01.120Z,3.06
2023-04-02T05:17:04.719Z,3.13
2023-04-02T05:18:39.454Z,3.13
2023-04-02T05:19:42.485Z,3.13
2023-04-02T05:20:45.280Z,3.06
2023-04-02T05:22:19.837Z,3.06
2023-04-02T05:23:24.527Z,3.00
2023-04-02T05:24:27.615Z,3.00
2023-04-02T05:26:02.342Z,3.00
2023-04-02T05:27:05.189Z,2.94
2023-04-02T05:28:07.988Z,2.94
2023-04-02T05:29:42.543Z,2.94
2023-04-02T05:30:45.481Z,2.94
2023-04-02T05:31:48.561Z,2.94
2023-04-02T05:33:23.241Z,2.88
2023-04-02T05:34:26.135Z,2.88
2023-04-02T05:35:29.078Z,2.81
2023-04-02T05:37:06.471Z,2.75
2023-04-02T05:38:10.081Z,2.69
2023-04-02T05:39:13.035Z,2.69
2023-04-02T05:40:47.631Z,2.69
2023-04-02T05:41:50.654Z,2.69
2023-04-02T05:42:53.537Z,2.69
2023-04-02T05:44:28.180Z,2.69
2023-04-02T05:45:31.029Z,2.63
2023-04-02T05:46:34.351Z,2.63
2023-04-02T05:48:09.248Z,2.63
2023-04-02T05:49:12.064Z,2.63
2023-04-02T05:50:14.888Z,2.63
2023-04-02T05:51:49.889Z,2.63
2023-04-02T05:52:54.990Z,2.63
2023-04-02T05:53:57.840Z,2.56
2023-04-02T05:55:33.110Z,2.56
2023-04-02T05:56:36.338Z,2.56
2023-04-02T05:57:44.821Z,2.56
2023-04-02T06:00:12.328Z,2.56
2023-04-02T06:01:15.129Z,2.56
2023-04-02T06:02:18.278Z,2.63
2023-04-02T06:03:54.065Z,2.56
2023-04-02T06:04:57.411Z,2.56
2023-04-02T06:06:00.311Z,2.56
2023-04-02T06:07:35.035Z,2.50
2023-04-02T06:08:37.924Z,2.50
2023-04-02T06:09:40.732Z,2.50
2023-04-02T06:11:15.601Z,2.50
2023-04-02T06:12:18.473Z,2.50
2023-04-02T06:13:21.399Z,2.50
2023-04-02T06:14:56.070Z,2.56
2023-04-02T06:15:58.894Z,2.56
2023-04-02T06:17:01.977Z,2.56
2023-04-02T06:18:36.653Z,2.56
2023-04-02T06:19:39.573Z,2.56
2023-04-02T06:20:42.348Z,2.50
2023-04-02T06:22:16.861Z,2.50
2023-04-02T06:23:19.685Z,2.50
2023-04-02T06:24:22.878Z,2.50
2023-04-02T06:25:57.475Z,2.44
2023-04-02T06:27:00.393Z,2.44
2023-04-02T06:28:03.315Z,2.44
2023-04-02T06:29:38.091Z,2.50
2023-04-02T06:30:41.183Z,2.50
2023-04-02T06:31:44.315Z,2.56
2023-04-02T06:33:18.952Z,2.56
2023-04-02T06:34:21.844Z,2.56
2023-04-02T06:35:24.840Z,2.56
2023-04-02T06:37:00.116Z,2.56
2023-04-02T06:38:02.982Z,2.50
2023-04-02T06:39:05.738Z,2.50
2023-04-02T06:40:40.310Z,2.50
2023-04-02T06:41:45.143Z,2.56
2023-04-02T06:42:48.010Z,2.56
2023-04-02T06:44:22.770Z,2.56
2023-04-02T06:45:25.829Z,2.56
2023-04-02T06:46:29.266Z,2.56
2023-04-02T06:48:05.166Z,2.56
2023-04-02T06:49:08.250Z,2.63
2023-04-02T06:50:11.287Z,2.63
2023-04-02T06:51:46.228Z,2.63
2023-04-02T06:52:49.060Z,2.63
2023-04-02T06:53:51.751Z,2.63
2023-04-02T06:55:26.200Z,2.63
2023-04-02T06:56:29.866Z,2.63
2023-04-02T06:57:32.983Z,2.63
2023-04-02T06:59:07.689Z,2.63
2023-04-02T07:00:12.009Z,2.63
2023-04-02T07:01:15.125Z,2.63
2023-04-02T07:02:18.252Z,2.63
2023-04-02T07:03:53.746Z,2.63
2023-04-02T07:04:56.969Z,2.69
2023-04-02T07:06:00.748Z,2.69
2023-04-02T07:07:35.389Z,2.69
2023-04-02T07:08:38.222Z,2.69
2023-04-02T07:09:41.021Z,2.69
2023-04-02T07:11:15.525Z,2.69
2023-04-02T07:12:18.308Z,2.69
2023-04-02T07:13:21.132Z,2.69
2023-04-02T07:14:55.689Z,2.63
2023-04-02T07:15:59.076Z,2.63
2023-04-02T07:17:03.113Z,2.56
2023-04-02T07:18:37.901Z,2.63
2023-04-02T07:19:40.877Z,2.63
2023-04-02T07:20:43.794Z,2.56
2023-04-02T07:22:18.499Z,2.56
2023-04-02T07:23:21.379Z,2.56
2023-04-02T07:24:24.391Z,2.56
2023-04-02T07:25:58.969Z,2.50
2023-04-02T07:27:01.744Z,2.56
2023-04-02T07:28:04.775Z,2.56
2023-04-02T07:29:41.022Z,2.56
2023-04-02T07:30:44.132Z,2.63
2023-04-02T07:31:47.148Z,2.63
2023-04-02T07:33:21.949Z,2.63
2023-04-02T07:34:28.159Z,2.63
2023-04-02T07:35:31.027Z,2.63
2023-04-02T07:37:06.352Z,2.63
2023-04-02T07:38:09.207Z,2.63
2023-04-02T07:39:12.276Z,2.63
2023-04-02T07:40:50.163Z,2.63
2023-04-02T07:41:53.071Z,2.56
2023-04-02T07:42:55.824Z,2.56
2023-04-02T07:44:30.518Z,2.56
2023-04-02T07:45:33.907Z,2.56
2023-04-02T07:46:37.220Z,2.56
2023-04-02T07:48:12.725Z,2.56
2023-04-02T07:49:15.493Z,2.56
2023-04-02T07:50:18.352Z,2.56
2023-04-02T07:51:53.162Z,2.56
2023-04-02T07:52:56.168Z,2.56
2023-04-02T07:53:59.030Z,2.63
2023-04-02T07:55:34.212Z,2.63
2023-04-02T07:56:37.295Z,2.63
2023-04-02T07:57:40.484Z,2.63
2023-04-02T07:59:16.062Z,2.63
2023-04-02T08:01:13.742Z,2.69
2023-04-02T08:02:16.489Z,2.63
2023-04-02T08:03:54.151Z,2.63
2023-04-02T08:04:58.188Z,2.69
2023-04-02T08:06:01.092Z,2.69
2023-04-02T08:07:35.550Z,2.75
2023-04-02T08:08:38.552Z,2.75
2023-04-02T08:09:41.742Z,2.81
2023-04-02T08:11:16.584Z,2.94
2023-04-02T08:12:22.886Z,2.94
2023-04-02T08:13:25.774Z,3.06
2023-04-02T08:15:00.512Z,3.06
2023-04-02T08:16:03.433Z,3.00
2023-04-02T08:17:06.811Z,3.00
2023-04-02T08:18:41.437Z,3.06
2023-04-02T08:19:54.068Z,3.06
2023-04-02T08:20:57.900Z,3.13
2023-04-02T08:22:34.512Z,3.13
2023-04-02T08:23:37.273Z,3.19
2023-04-02T08:24:40.169Z,3.19
2023-04-02T08:26:14.982Z,3.25
2023-04-02T08:27:20.341Z,3.25
2023-04-02T08:28:23.271Z,3.25
2023-04-02T08:29:57.981Z,3.25
2023-04-02T08:31:01.184Z,3.25
2023-04-02T08:32:04.571Z,3.19
2023-04-02T08:33:39.269Z,3.25
2023-04-02T08:34:42.099Z,3.25
2023-04-02T08:35:45.164Z,3.25
2023-04-02T08:37:20.215Z,3.31
2023-04-02T08:38:23.141Z,3.31
2023-04-02T08:39:26.252Z,3.38
2023-04-02T08:41:00.704Z,3.38
2023-04-02T08:42:03.610Z,3.38
2023-04-02T08:43:06.629Z,3.38
2023-04-02T08:44:41.772Z,3.44
2023-04-02T08:46:04.583Z,3.44
2023-04-02T08:47:08.162Z,3.44
2023-04-02T08:48:43.053Z,3.44
2023-04-02T08:49:45.914Z,3.38
2023-04-02T08:50:48.709Z,3.38
2023-04-02T08:52:23.308Z,3.44
2023-04-02T08:53:26.326Z,3.44
2023-04-02T08:54:29.274Z,3.44
2023-04-02T08:56:03.973Z,3.56
2023-04-02T08:57:06.832Z,3.56
2023-04-02T08:58:10.015Z,3.63
2023-04-02T08:59:44.645Z,3.69
2023-04-02T09:00:12.423Z,3.75
2023-04-02T09:01:15.347Z,3.81
2023-04-02T09:02:18.693Z,3.94
2023-04-02T09:03:53.927Z,4.06
2023-04-02T09:04:57.086Z,4.19
2023-04-02T09:06:00.315Z,4.31
2023-04-02T09:07:34.905Z,4.44
2023-04-02T09:08:37.734Z,4.50
2023-04-02T09:09:40.717Z,4.56
2023-04-02T09:11:15.194Z,4.69
2023-04-02T09:12:18.192Z,4.69
2023-04-02T09:13:22.946Z,4.75
2023-04-02T09:14:57.527Z,4.88
2023-04-02T09:16:00.611Z,4.94
2023-04-02T09:17:04.124Z,5.00
2023-04-02T09:18:53.530Z,5.13
2023-04-02T09:19:56.402Z,5.06
2023-04-02T09:20:59.271Z,5.06
2023-04-02T09:22:34.027Z,5.13
2023-04-02T09:23:36.938Z,5.19
2023-04-02T09:24:40.262Z,5.25
2023-04-02T09:26:14.967Z,5.31
2023-04-02T09:27:17.704Z,5.31
2023-04-02T09:28:20.459Z,5.38
2023-04-02T09:29:55.017Z,5.25
2023-04-02T09:30:57.822Z,5.19
2023-04-02T09:32:04.462Z,5.13
2023-04-02T09:33:39.598Z,5.13
2023-04-02T09:34:42.506Z,5.19
2023-04-02T09:36:02.006Z,5.31
2023-04-02T09:37:39.953Z,5.38
2023-04-02T09:38:42.818Z,5.63
2023-04-02T09:39:45.693Z,5.69
2023-04-02T09:41:20.323Z,5.75
2023-04-02T09:42:40.071Z,5.81
2023-04-02T09:43:42.858Z,5.88
2023-04-02T09:45:17.381Z,6.06
2023-04-02T09:46:20.634Z,6.13
2023-04-02T09:47:24.067Z,6.19
2023-04-02T09:49:00.546Z,6.31
2023-04-02T09:50:03.431Z,6.38
2023-04-02T09:51:06.476Z,6.38
2023-04-02T09:52:41.617Z,6.44
2023-04-02T09:53:44.592Z,6.56
2023-04-02T09:54:47.646Z,6.63
2023-04-02T09:56:22.324Z,6.69
2023-04-02T09:57:25.422Z,6.69
2023-04-02T09:58:28.438Z,6.63
2023-04-02T10:00:25.249Z,6.50
2023-04-02T10:01:34.153Z,6.25
2023-04-02T10:02:37.152Z,6.13
2023-04-02T10:04:12.050Z,6.00
2023-04-02T10:05:26.718Z,5.88
2023-04-02T10:06:42.401Z,5.94
2023-04-02T10:08:17.404Z,5.94
2023-04-02T10:09:20.338Z,5.94
2023-04-02T10:10:25.267Z,5.94
2023-04-02T10:12:11.681Z,5.94
2023-04-02T10:13:14.613Z,5.94
2023-04-02T10:14:17.521Z,6.00
2023-04-02T10:15:52.283Z,6.13
2023-04-02T10:16:55.501Z,6.19
2023-04-02T10:17:59.003Z,6.25
2023-04-02T10:19:34.005Z,6.44
2023-04-02T10:20:48.697Z,6.50
2023-04-02T10:21:53.922Z,6.63
2023-04-02T10:23:28.400Z,6.63
2023-04-02T10:24:31.260Z,6.69
2023-04-02T10:25:34.269Z,6.75
2023-04-02T10:27:09.157Z,6.75
2023-04-02T10:28:12.154Z,6.81
2023-04-02T10:29:15.191Z,6.88
2023-04-02T10:30:50.089Z,6.94
2023-04-02T10:31:53.264Z,6.94
2023-04-02T10:32:56.162Z,7.06
2023-04-02T10:34:30.726Z,7.06
2023-04-02T10:35:35.276Z,7.00
2023-04-02T10:36:38.542Z,7.00
2023-04-02T10:38:13.313Z,7.00
2023-04-02T10:39:16.108Z,7.06
2023-04-02T10:40:18.901Z,7.13
2023-04-02T10:41:53.764Z,7.13
2023-04-02T10:42:56.671Z,7.13
2023-04-02T10:44:09.195Z,7.13
2023-04-02T10:45:51.755Z,7.19
2023-04-02T10:46:56.721Z,7.25
2023-04-02T10:47:59.767Z,7.31
2023-04-02T10:49:34.720Z,7.38
2023-04-02T10:50:37.838Z,7.50
2023-04-02T10:51:40.768Z,7.50
2023-04-02T10:53:15.466Z,7.56
2023-04-02T10:54:18.254Z,7.56
2023-04-02T10:55:21.238Z,7.63
2023-04-02T10:56:55.905Z,7.63
2023-04-02T10:57:59.035Z,7.69
2023-04-02T10:59:01.948Z,7.69
2023-04-02T11:00:12.655Z,7.75
2023-04-02T11:01:16.002Z,7.81
2023-04-02T11:02:19.168Z,7.94
2023-04-02T11:03:57.074Z,8.00
2023-04-02T11:05:01.961Z,8.13
2023-04-02T11:06:06.145Z,8.19
2023-04-02T11:07:49.539Z,8.38
2023-04-02T11:08:52.440Z,8.38
2023-04-02T11:09:55.298Z,8.38
2023-04-02T11:11:29.828Z,8.31
2023-04-02T11:12:32.548Z,8.31
2023-04-02T11:13:39.357Z,8.25
2023-04-02T11:15:14.186Z,8.19
2023-04-02T11:16:18.148Z,8.25
2023-04-02T11:17:26.411Z,8.31
2023-04-02T11:19:01.538Z,8.38
2023-04-02T11:20:04.706Z,8.38
2023-04-02T11:21:09.716Z,8.25
2023-04-02T11:22:58.075Z,8.31
2023-04-02T11:24:00.868Z,8.31
2023-04-02T11:25:03.769Z,8.31
2023-04-02T11:26:38.560Z,8.50
2023-04-02T11:27:41.374Z,8.56
2023-04-02T11:28:44.148Z,8.63
2023-04-02T11:30:18.803Z,8.63
2023-04-02T11:31:21.701Z,8.63
2023-04-02T11:32:25.288Z,8.63
2023-04-02T11:34:11.125Z,8.81
2023-04-02T11:35:14.146Z,8.88
2023-04-02T11:36:17.780Z,9.00
2023-04-02T11:37:52.670Z,9.06
2023-04-02T11:40:14.212Z,9.00
2023-04-02T11:41:48.995Z,8.94
2023-04-02T11:42:51.817Z,8.88
2023-04-02T11:43:54.649Z,8.88
2023-04-02T11:45:29.169Z,8.88
2023-04-02T11:46:48.145Z,8.88
2023-04-02T11:47:51.938Z,8.94
2023-04-02T11:49:28.024Z,9.13
2023-04-02T11:50:31.796Z,9.06
2023-04-02T11:51:35.691Z,9.13
2023-04-02T11:53:27.286Z,9.44
2023-04-02T11:54:30.161Z,9.56
2023-04-02T11:55:33.078Z,9.56
2023-04-02T11:57:08.298Z,9.56
2023-04-02T11:58:13.484Z,9.56
2023-04-02T11:59:16.294Z,9.63
2023-04-02T12:01:16.201Z,9.69
2023-04-02T12:02:19.208Z,9.69
2023-04-02T12:03:54.632Z,9.81
2023-04-02T12:04:57.496Z,9.81
2023-04-02T12:06:03.756Z,9.88
2023-04-02T12:07:39.164Z,9.94
2023-04-02T12:08:50.881Z,10.00
2023-04-02T12:10:00.487Z,10.06
2023-04-02T12:11:35.317Z,10.19
2023-04-02T12:12:38.466Z,10.31
2023-04-02T12:13:41.625Z,10.31
2023-04-02T12:15:16.331Z,10.44
2023-04-02T12:16:19.424Z,10.44
2023-04-02T12:17:22.594Z,10.50
2023-04-02T12:18:57.610Z,10.50
2023-04-02T12:20:00.570Z,10.50
2023-04-02T12:21:03.465Z,10.44
2023-04-02T12:22:38.079Z,10.38
2023-04-02T12:23:40.927Z,10.38
2023-04-02T12:24:43.792Z,10.38
2023-04-02T12:26:18.606Z,10.44
2023-04-02T12:27:21.661Z,10.50
2023-04-02T12:28:24.586Z,10.50
2023-04-02T12:29:59.450Z,10.50
2023-04-02T12:31:02.448Z,10.50
2023-04-02T12:32:05.988Z,10.44
2023-04-02T12:33:42.546Z,10.44
2023-04-02T12:34:45.304Z,10.63
2023-04-02T12:35:48.278Z,10.63
2023-04-02T12:37:23.453Z,10.69
2023-04-02T12:38:26.286Z,10.69
2023-04-02T12:39:29.040Z,10.69
2023-04-02T12:41:03.680Z,10.69
2023-04-02T12:42:06.620Z,10.75
2023-04-02T12:43:09.684Z,10.75
2023-04-02T12:44:44.651Z,10.81
2023-04-02T12:45:47.574Z,10.81
2023-04-02T12:46:50.735Z,10.88
2023-04-02T12:48:25.618Z,10.75
2023-04-02T12:49:28.584Z,10.75
2023-04-02T12:50:31.416Z,10.75
2023-04-02T12:52:06.609Z,10.88
2023-04-02T12:53:09.440Z,10.94
2023-04-02T12:54:12.252Z,11.00
2023-04-02T12:55:46.782Z,11.00
2023-04-02T12:56:49.635Z,11.00
2023-04-02T12:57:55.574Z,10.94
2023-04-02T12:59:30.539Z,11.00
2023-04-02T13:01:15.859Z,10.94
2023-04-02T13:02:19.090Z,10.88
2023-04-02T13:03:54.351Z,10.88
2023-04-02T13:04:57.936Z,10.94
2023-04-02T13:06:00.986Z,11.00
2023-04-02T13:07:35.701Z,11.06
2023-04-02T13:08:38.566Z,11.06
2023-04-02T13:09:41.503Z,11.00
2023-04-02T13:11:16.484Z,11.00
2023-04-02T13:12:19.288Z,11.06
2023-04-02T13:13:22.264Z,11.13
2023-04-02T13:14:57.116Z,11.13
2023-04-02T13:16:02.658Z,11.13
2023-04-02T13:17:06.180Z,11.19
2023-04-02T13:18:41.025Z,11.25
2023-04-02T13:19:43.863Z,11.38
2023-04-02T13:20:46.968Z,11.38
2023-04-02T13:22:21.616Z,11.38
2023-04-02T13:23:24.420Z,11.31
2023-04-02T13:24:27.433Z,11.31
2023-04-02T13:26:02.007Z,11.44
2023-04-02T13:27:05.068Z,11.50
2023-04-02T13:28:10.271Z,11.56
2023-04-02T13:29:45.046Z,11.69
2023-04-02T13:30:47.835Z,11.69
2023-04-02T13:31:51.011Z,11.63
2023-04-02T13:33:26.011Z,11.50
2023-04-02T13:34:28.963Z,11.50
2023-04-02T13:35:31.886Z,11.44
2023-04-02T13:37:06.875Z,11.50
2023-04-02T13:38:10.321Z,11.50
2023-04-02T13:39:13.253Z,11.69
2023-04-02T13:40:47.738Z,11.88
2023-04-02T13:41:50.450Z,11.88
2023-04-02T13:42:53.295Z,11.75
2023-04-02T13:44:27.771Z,11.81
2023-04-02T13:45:30.620Z,11.88
2023-04-02T13:46:33.987Z,11.88
2023-04-02T13:48:08.760Z,11.81
2023-04-02T13:49:11.757Z,11.75
2023-04-02T13:50:14.850Z,11.75
2023-04-02T13:51:50.007Z,11.69
2023-04-02T13:52:52.844Z,11.63
2023-04-02T13:53:56.793Z,11.69
2023-04-02T13:55:31.482Z,11.63
2023-04-02T13:56:34.444Z,11.63
2023-04-02T13:57:37.634Z,11.63
2023-04-02T13:59:12.539Z,11.63
2023-04-02T14:01:15.109Z,11.69
2023-04-02T14:02:18.539Z,11.75
2023-04-02T14:03:53.623Z,11.75
2023-04-02T14:04:57.084Z,11.69
2023-04-02T14:06:00.013Z,11.69
2023-04-02T14:07:34.756Z,11.69
2023-04-02T14:08:37.689Z,11.69
2023-04-02T14:09:40.861Z,11.69
2023-04-02T14:11:15.809Z,11.75
2023-04-02T14:12:18.626Z,11.69
2023-04-02T14:13:21.569Z,11.75
2023-04-02T14:14:56.125Z,11.75
2023-04-02T14:15:59.026Z,11.81
2023-04-02T14:17:02.198Z,11.81
2023-04-02T14:18:37.296Z,11.75
2023-04-02T14:19:40.089Z,11.75
2023-04-02T14:20:42.974Z,11.81
2023-04-02T14:22:20.969Z,11.88
2023-04-02T14:23:24.002Z,11.81
2023-04-02T14:24:26.984Z,11.63
2023-04-02T14:26:01.636Z,11.63
2023-04-02T14:27:04.764Z,11.63
2023-04-02T14:28:07.868Z,11.69
2023-04-02T14:29:42.715Z,11.75
2023-04-02T14:30:45.560Z,11.63
2023-04-02T14:31:48.800Z,11.69
2023-04-02T14:33:23.348Z,11.63
2023-04-02T14:34:26.069Z,11.63
2023-04-02T14:35:28.956Z,11.69
2023-04-02T14:37:03.774Z,11.75
2023-04-02T14:38:07.358Z,11.81
2023-04-02T14:39:10.235Z,11.88
2023-04-02T14:40:44.979Z,11.94
2023-04-02T14:41:47.914Z,12.00
2023-04-02T14:42:50.930Z,11.94
2023-04-02T14:44:25.793Z,11.94
2023-04-02T14:45:28.851Z,11.88
2023-04-02T14:46:31.875Z,11.88
2023-04-02T14:48:07.176Z,11.94
2023-04-02T14:49:09.983Z,11.94
2023-04-02T14:50:12.929Z,11.94
2023-04-02T14:51:47.980Z,11.88
2023-04-02T14:52:50.902Z,11.81
2023-04-02T14:53:53.804Z,11.81
2023-04-02T14:55:28.547Z,11.88
2023-04-02T14:56:31.433Z,11.81
2023-04-02T14:57:34.675Z,11.75
2023-04-02T14:59:09.515Z,11.81
2023-04-02T15:00:11.693Z,11.75
2023-04-02T15:01:14.990Z,11.81
2023-04-02T15:02:18.484Z,11.88
2023-04-02T15:03:53.872Z,11.94
2023-04-02T15:04:57.273Z,11.94
2023-04-02T15:06:00.958Z,11.94
2023-04-02T15:07:35.894Z,12.00
2023-04-02T15:08:38.848Z,12.00
2023-04-02T15:10:01.113Z,12.00
2023-04-02T15:11:35.703Z,12.13
2023-04-02T15:12:38.705Z,12.13
2023-04-02T15:13:41.768Z,12.19
2023-04-02T15:15:17.967Z,12.19
2023-04-02T15:16:37.314Z,12.06
2023-04-02T15:17:40.425Z,12.00
2023-04-02T15:19:15.763Z,11.81
2023-04-02T15:20:18.671Z,11.75
2023-04-02T15:21:22.070Z,11.81
2023-04-02T15:23:21.285Z,11.75
2023-04-02T15:24:24.130Z,11.81
2023-04-02T15:25:27.043Z,11.88
2023-04-02T15:27:02.050Z,11.88
2023-04-02T15:28:17.580Z,11.88
2023-04-02T15:29:28.720Z,11.88
2023-04-02T15:31:04.185Z,11.81
2023-04-02T15:32:07.413Z,11.81
2023-04-02T15:33:10.564Z,11.75
2023-04-02T15:34:45.218Z,11.75
2023-04-02T15:35:48.505Z,11.69
2023-04-02T15:36:51.743Z,11.63
2023-04-02T15:38:26.644Z,11.56
2023-04-02T15:39:29.579Z,11.56
2023-04-02T15:40:32.651Z,11.63
2023-04-02T15:42:07.190Z,11.69
2023-04-02T15:43:10.374Z,11.69
2023-04-02T15:44:13.171Z,11.69
2023-04-02T15:45:47.907Z,11.69
2023-04-02T15:46:51.108Z,11.69
2023-04-02T15:47:54.015Z,11.75
2023-04-02T15:49:29.032Z,11.63
2023-04-02T15:50:32.175Z,11.63
2023-04-02T15:51:36.037Z,11.63
2023-04-02T15:53:13.637Z,11.63
2023-04-02T15:54:16.575Z,11.63
2023-04-02T15:55:19.569Z,11.63
2023-04-02T15:56:54.567Z,11.56
2023-04-02T15:57:57.923Z,11.56
2023-04-02T15:59:00.960Z,11.56
2023-04-02T16:00:12.374Z,11.56
2023-04-02T16:01:15.559Z,11.50
2023-04-02T16:02:18.716Z,11.44
2023-04-02T16:03:53.819Z,11.44
2023-04-02T16:04:59.944Z,11.31
2023-04-02T16:05:41.183Z,11.31
2023-04-02T16:06:44.328Z,11.31
2023-04-02T16:07:47.244Z,11.13
2023-04-02T16:09:22.004Z,11.06
2023-04-02T16:10:38.068Z,11.06
2023-04-02T16:11:47.919Z,11.06
2023-04-02T16:13:22.821Z,11.00
2023-04-02T16:14:25.973Z,10.94
2023-04-02T16:15:28.995Z,10.94
2023-04-02T16:17:14.018Z,10.88
2023-04-02T16:18:25.436Z,10.81
2023-04-02T16:19:28.687Z,10.75